sensor_id;sensor_type;location;lat;lon;timestamp;P1;durP1;ratioP1;P2;durP2;ratioP2
58756;SDS011;44527;47.460;19.016;2024-01-15T00:03:11;63.22;;;26.52;;
58756;SDS011;44527;47.460;19.016;2024-01-15T00:06:28;62.55;;;27.05;;
58756;SDS011;44527;47.460;19.016;2024-01-15T00:09:36;75.25;;;30.52;;
58756;SDS011;44527;47.460;19.016;2024-01-15T00:12:55;76.85;;;31.48;;
58756;SDS011;44527;47.460;19.016;2024-01-15T00:16:04;78.05;;;29.83;;
58756;SDS011;44527;47.460;19.016;2024-01-15T00:19:10;79.00;;;29.45;;
58756;SDS011;44527;47.460;19.016;2024-01-15T00:22:15;69.55;;;28.38;;
58756;SDS011;44527;47.460;19.016;2024-01-15T00:25:19;76.70;;;29.70;;
58756;SDS011;44527;47.460;19.016;2024-01-15T00:28:26;70.78;;;29.27;;
58756;SDS011;44527;47.460;19.016;2024-01-15T00:31:34;73.68;;;30.02;;
58756;SDS011;44527;47.460;19.016;2024-01-15T00:34:45;85.45;;;30.02;;
58756;SDS011;44527;47.460;19.016;2024-01-15T00:37:52;76.37;;;30.62;;
58756;SDS011;44527;47.460;19.016;2024-01-15T00:41:02;83.32;;;34.15;;
58756;SDS011;44527;47.460;19.016;2024-01-15T00:44:16;89.00;;;36.65;;
58756;SDS011;44527;47.460;19.016;2024-01-15T00:47:21;93.32;;;32.50;;
58756;SDS011;44527;47.460;19.016;2024-01-15T00:50:30;73.55;;;29.63;;
58756;SDS011;44527;47.460;19.016;2024-01-15T00:53:37;76.32;;;32.22;;
58756;SDS011;44527;47.460;19.016;2024-01-15T00:56:58;73.97;;;29.90;;
58756;SDS011;44527;47.460;19.016;2024-01-15T01:00:05;77.80;;;30.90;;
58756;SDS011;44527;47.460;19.016;2024-01-15T01:03:15;79.65;;;31.75;;
58756;SDS011;44527;47.460;19.016;2024-01-15T01:06:21;77.97;;;31.02;;
58756;SDS011;44527;47.460;19.016;2024-01-15T01:09:42;83.32;;;30.35;;
58756;SDS011;44527;47.460;19.016;2024-01-15T01:12:52;73.78;;;27.85;;
58756;SDS011;44527;47.460;19.016;2024-01-15T01:15:56;75.40;;;31.98;;
58756;SDS011;44527;47.460;19.016;2024-01-15T01:19:01;77.57;;;31.25;;
58756;SDS011;44527;47.460;19.016;2024-01-15T01:22:07;71.37;;;30.83;;
58756;SDS011;44527;47.460;19.016;2024-01-15T01:25:18;79.03;;;32.30;;
58756;SDS011;44527;47.460;19.016;2024-01-15T01:28:23;65.85;;;28.30;;
58756;SDS011;44527;47.460;19.016;2024-01-15T01:31:36;63.53;;;28.50;;
58756;SDS011;44527;47.460;19.016;2024-01-15T01:34:48;76.97;;;30.33;;
58756;SDS011;44527;47.460;19.016;2024-01-15T01:37:58;70.32;;;29.87;;
58756;SDS011;44527;47.460;19.016;2024-01-15T01:41:04;75.28;;;29.33;;
58756;SDS011;44527;47.460;19.016;2024-01-15T01:44:15;72.90;;;29.08;;
58756;SDS011;44527;47.460;19.016;2024-01-15T01:47:20;71.15;;;28.38;;
58756;SDS011;44527;47.460;19.016;2024-01-15T01:50:26;72.03;;;29.70;;
58756;SDS011;44527;47.460;19.016;2024-01-15T01:53:32;61.58;;;26.83;;
58756;SDS011;44527;47.460;19.016;2024-01-15T01:56:38;62.83;;;28.80;;
58756;SDS011;44527;47.460;19.016;2024-01-15T01:59:49;84.32;;;29.92;;
58756;SDS011;44527;47.460;19.016;2024-01-15T02:02:59;69.28;;;28.98;;
58756;SDS011;44527;47.460;19.016;2024-01-15T02:06:05;72.20;;;29.77;;
58756;SDS011;44527;47.460;19.016;2024-01-15T02:09:10;66.62;;;28.45;;
58756;SDS011;44527;47.460;19.016;2024-01-15T02:12:28;78.53;;;28.85;;
58756;SDS011;44527;47.460;19.016;2024-01-15T02:15:34;71.80;;;31.00;;
58756;SDS011;44527;47.460;19.016;2024-01-15T02:18:43;74.28;;;29.40;;
58756;SDS011;44527;47.460;19.016;2024-01-15T02:21:47;71.80;;;27.50;;
58756;SDS011;44527;47.460;19.016;2024-01-15T02:24:51;67.55;;;25.92;;
58756;SDS011;44527;47.460;19.016;2024-01-15T02:27:55;59.60;;;26.30;;
58756;SDS011;44527;47.460;19.016;2024-01-15T02:31:02;62.05;;;27.77;;
58756;SDS011;44527;47.460;19.016;2024-01-15T02:34:05;61.60;;;26.35;;
58756;SDS011;44527;47.460;19.016;2024-01-15T02:37:09;62.90;;;26.48;;
58756;SDS011;44527;47.460;19.016;2024-01-15T02:40:13;67.32;;;27.67;;
58756;SDS011;44527;47.460;19.016;2024-01-15T02:43:16;74.75;;;25.80;;
58756;SDS011;44527;47.460;19.016;2024-01-15T02:46:23;64.95;;;27.37;;
58756;SDS011;44527;47.460;19.016;2024-01-15T02:49:28;66.18;;;26.95;;
58756;SDS011;44527;47.460;19.016;2024-01-15T02:52:31;65.60;;;26.12;;
58756;SDS011;44527;47.460;19.016;2024-01-15T02:55:38;65.43;;;24.73;;
58756;SDS011;44527;47.460;19.016;2024-01-15T02:58:41;69.22;;;26.08;;
58756;SDS011;44527;47.460;19.016;2024-01-15T03:01:45;68.05;;;27.95;;
58756;SDS011;44527;47.460;19.016;2024-01-15T03:04:50;69.72;;;28.12;;
58756;SDS011;44527;47.460;19.016;2024-01-15T03:08:00;65.20;;;25.92;;
58756;SDS011;44527;47.460;19.016;2024-01-15T03:11:10;65.75;;;26.83;;
58756;SDS011;44527;47.460;19.016;2024-01-15T03:14:16;65.72;;;26.20;;
58756;SDS011;44527;47.460;19.016;2024-01-15T03:17:20;69.28;;;26.52;;
58756;SDS011;44527;47.460;19.016;2024-01-15T03:20:24;67.65;;;26.70;;
58756;SDS011;44527;47.460;19.016;2024-01-15T03:23:28;65.80;;;26.05;;
58756;SDS011;44527;47.460;19.016;2024-01-15T03:26:32;67.68;;;26.00;;
58756;SDS011;44527;47.460;19.016;2024-01-15T03:29:37;61.88;;;26.40;;
58756;SDS011;44527;47.460;19.016;2024-01-15T03:32:44;64.70;;;26.45;;
58756;SDS011;44527;47.460;19.016;2024-01-15T03:35:50;62.10;;;24.70;;
58756;SDS011;44527;47.460;19.016;2024-01-15T03:38:59;68.97;;;27.95;;
58756;SDS011;44527;47.460;19.016;2024-01-15T03:42:06;65.57;;;25.83;;
58756;SDS011;44527;47.460;19.016;2024-01-15T03:45:13;61.10;;;24.48;;
58756;SDS011;44527;47.460;19.016;2024-01-15T03:48:19;66.57;;;26.05;;
58756;SDS011;44527;47.460;19.016;2024-01-15T03:51:27;55.65;;;23.95;;
58756;SDS011;44527;47.460;19.016;2024-01-15T03:54:31;64.22;;;24.65;;
58756;SDS011;44527;47.460;19.016;2024-01-15T03:57:38;58.95;;;24.48;;
58756;SDS011;44527;47.460;19.016;2024-01-15T04:00:43;60.80;;;25.60;;
58756;SDS011;44527;47.460;19.016;2024-01-15T04:03:49;63.00;;;24.02;;
58756;SDS011;44527;47.460;19.016;2024-01-15T04:06:55;72.78;;;26.23;;
58756;SDS011;44527;47.460;19.016;2024-01-15T04:10:02;63.15;;;24.27;;
58756;SDS011;44527;47.460;19.016;2024-01-15T04:13:06;58.28;;;23.33;;
58756;SDS011;44527;47.460;19.016;2024-01-15T04:16:22;65.78;;;24.35;;
58756;SDS011;44527;47.460;19.016;2024-01-15T04:19:26;66.35;;;25.30;;
58756;SDS011;44527;47.460;19.016;2024-01-15T04:22:31;57.40;;;24.67;;
58756;SDS011;44527;47.460;19.016;2024-01-15T04:25:37;54.70;;;22.27;;
58756;SDS011;44527;47.460;19.016;2024-01-15T04:28:40;57.88;;;24.10;;
58756;SDS011;44527;47.460;19.016;2024-01-15T04:31:51;63.85;;;24.70;;
58756;SDS011;44527;47.460;19.016;2024-01-15T04:34:59;63.30;;;25.08;;
58756;SDS011;44527;47.460;19.016;2024-01-15T04:38:02;52.28;;;22.40;;
58756;SDS011;44527;47.460;19.016;2024-01-15T04:41:05;57.75;;;23.23;;
58756;SDS011;44527;47.460;19.016;2024-01-15T04:44:09;56.42;;;21.83;;
58756;SDS011;44527;47.460;19.016;2024-01-15T04:47:12;54.78;;;21.42;;
58756;SDS011;44527;47.460;19.016;2024-01-15T04:50:15;52.30;;;20.48;;
58756;SDS011;44527;47.460;19.016;2024-01-15T04:53:18;51.78;;;22.10;;
58756;SDS011;44527;47.460;19.016;2024-01-15T04:56:21;55.15;;;21.75;;
58756;SDS011;44527;47.460;19.016;2024-01-15T04:59:23;62.47;;;22.83;;
58756;SDS011;44527;47.460;19.016;2024-01-15T05:02:25;56.67;;;20.98;;
58756;SDS011;44527;47.460;19.016;2024-01-15T05:05:28;57.10;;;20.73;;
58756;SDS011;44527;47.460;19.016;2024-01-15T05:08:30;56.55;;;21.77;;
58756;SDS011;44527;47.460;19.016;2024-01-15T05:11:33;44.67;;;19.00;;
58756;SDS011;44527;47.460;19.016;2024-01-15T05:14:35;51.37;;;21.15;;
58756;SDS011;44527;47.460;19.016;2024-01-15T05:17:38;53.35;;;20.25;;
58756;SDS011;44527;47.460;19.016;2024-01-15T05:20:40;50.60;;;20.40;;
58756;SDS011;44527;47.460;19.016;2024-01-15T05:23:44;41.17;;;19.10;;
58756;SDS011;44527;47.460;19.016;2024-01-15T05:26:47;48.55;;;21.67;;
58756;SDS011;44527;47.460;19.016;2024-01-15T05:29:50;49.05;;;19.95;;
58756;SDS011;44527;47.460;19.016;2024-01-15T05:32:52;43.15;;;18.85;;
58756;SDS011;44527;47.460;19.016;2024-01-15T05:35:55;47.33;;;18.87;;
58756;SDS011;44527;47.460;19.016;2024-01-15T05:38:57;56.95;;;21.20;;
58756;SDS011;44527;47.460;19.016;2024-01-15T05:42:00;51.40;;;20.33;;
58756;SDS011;44527;47.460;19.016;2024-01-15T05:45:03;56.88;;;20.98;;
58756;SDS011;44527;47.460;19.016;2024-01-15T05:48:07;52.60;;;20.92;;
58756;SDS011;44527;47.460;19.016;2024-01-15T05:51:09;58.97;;;22.58;;
58756;SDS011;44527;47.460;19.016;2024-01-15T05:54:12;59.03;;;22.48;;
58756;SDS011;44527;47.460;19.016;2024-01-15T05:57:16;51.88;;;22.13;;
58756;SDS011;44527;47.460;19.016;2024-01-15T06:00:18;53.10;;;22.67;;
58756;SDS011;44527;47.460;19.016;2024-01-15T06:03:22;54.35;;;20.77;;
58756;SDS011;44527;47.460;19.016;2024-01-15T06:06:24;62.28;;;21.35;;
58756;SDS011;44527;47.460;19.016;2024-01-15T06:09:27;52.80;;;19.80;;
58756;SDS011;44527;47.460;19.016;2024-01-15T06:12:30;48.83;;;19.67;;
58756;SDS011;44527;47.460;19.016;2024-01-15T06:15:35;52.42;;;20.05;;
58756;SDS011;44527;47.460;19.016;2024-01-15T06:18:38;46.35;;;20.50;;
58756;SDS011;44527;47.460;19.016;2024-01-15T06:21:41;56.13;;;23.30;;
58756;SDS011;44527;47.460;19.016;2024-01-15T06:24:43;62.25;;;22.80;;
58756;SDS011;44527;47.460;19.016;2024-01-15T06:27:46;54.35;;;22.13;;
58756;SDS011;44527;47.460;19.016;2024-01-15T06:30:48;56.92;;;22.95;;
58756;SDS011;44527;47.460;19.016;2024-01-15T06:33:51;56.25;;;22.55;;
58756;SDS011;44527;47.460;19.016;2024-01-15T06:36:55;61.72;;;24.02;;
58756;SDS011;44527;47.460;19.016;2024-01-15T06:39:58;54.20;;;23.10;;
58756;SDS011;44527;47.460;19.016;2024-01-15T06:43:01;57.55;;;23.67;;
58756;SDS011;44527;47.460;19.016;2024-01-15T06:46:04;71.55;;;26.70;;
58756;SDS011;44527;47.460;19.016;2024-01-15T06:49:09;56.75;;;23.38;;
58756;SDS011;44527;47.460;19.016;2024-01-15T06:52:12;51.70;;;23.02;;
58756;SDS011;44527;47.460;19.016;2024-01-15T06:55:15;67.05;;;24.42;;
58756;SDS011;44527;47.460;19.016;2024-01-15T06:58:18;54.72;;;22.77;;
58756;SDS011;44527;47.460;19.016;2024-01-15T07:01:21;58.55;;;21.95;;
58756;SDS011;44527;47.460;19.016;2024-01-15T07:04:24;58.33;;;21.85;;
58756;SDS011;44527;47.460;19.016;2024-01-15T07:07:26;58.10;;;22.48;;
58756;SDS011;44527;47.460;19.016;2024-01-15T07:10:32;55.33;;;24.08;;
58756;SDS011;44527;47.460;19.016;2024-01-15T07:13:38;60.25;;;22.80;;
58756;SDS011;44527;47.460;19.016;2024-01-15T07:16:42;58.55;;;23.27;;
58756;SDS011;44527;47.460;19.016;2024-01-15T07:19:49;57.58;;;23.73;;
58756;SDS011;44527;47.460;19.016;2024-01-15T07:22:53;58.33;;;23.17;;
58756;SDS011;44527;47.460;19.016;2024-01-15T07:26:01;64.53;;;24.90;;
58756;SDS011;44527;47.460;19.016;2024-01-15T07:29:06;55.25;;;23.17;;
58756;SDS011;44527;47.460;19.016;2024-01-15T07:32:29;62.53;;;24.67;;
58756;SDS011;44527;47.460;19.016;2024-01-15T07:35:33;63.47;;;22.75;;
58756;SDS011;44527;47.460;19.016;2024-01-15T07:38:36;71.37;;;25.52;;
58756;SDS011;44527;47.460;19.016;2024-01-15T07:41:39;60.88;;;24.02;;
58756;SDS011;44527;47.460;19.016;2024-01-15T07:44:45;57.97;;;23.55;;
58756;SDS011;44527;47.460;19.016;2024-01-15T07:47:48;69.32;;;24.10;;
58756;SDS011;44527;47.460;19.016;2024-01-15T07:50:54;56.50;;;24.45;;
58756;SDS011;44527;47.460;19.016;2024-01-15T07:53:58;73.25;;;24.85;;
58756;SDS011;44527;47.460;19.016;2024-01-15T07:57:26;52.53;;;24.35;;
58756;SDS011;44527;47.460;19.016;2024-01-15T08:00:33;60.92;;;23.35;;
58756;SDS011;44527;47.460;19.016;2024-01-15T08:03:39;58.47;;;24.75;;
58756;SDS011;44527;47.460;19.016;2024-01-15T08:06:42;63.65;;;24.73;;
58756;SDS011;44527;47.460;19.016;2024-01-15T08:09:45;54.55;;;22.17;;
58756;SDS011;44527;47.460;19.016;2024-01-15T08:12:53;56.00;;;22.70;;
58756;SDS011;44527;47.460;19.016;2024-01-15T08:15:58;52.50;;;22.65;;
58756;SDS011;44527;47.460;19.016;2024-01-15T09:17:57;21.75;;;9.07;;
58756;SDS011;44527;47.460;19.016;2024-01-15T09:33:19;17.95;;;8.30;;
58756;SDS011;44527;47.460;19.016;2024-01-15T09:36:22;18.12;;;7.97;;
58756;SDS011;44527;47.460;19.016;2024-01-15T09:39:27;14.43;;;7.20;;
58756;SDS011;44527;47.460;19.016;2024-01-15T09:42:34;23.95;;;7.70;;
58756;SDS011;44527;47.460;19.016;2024-01-15T09:45:48;16.58;;;6.68;;
58756;SDS011;44527;47.460;19.016;2024-01-15T09:49:40;17.70;;;6.50;;
58756;SDS011;44527;47.460;19.016;2024-01-15T09:52:44;10.77;;;5.05;;
58756;SDS011;44527;47.460;19.016;2024-01-15T09:55:49;13.30;;;6.37;;
58756;SDS011;44527;47.460;19.016;2024-01-15T09:59:01;14.27;;;6.05;;
58756;SDS011;44527;47.460;19.016;2024-01-15T11:06:17;11.00;;;4.65;;
58756;SDS011;44527;47.460;19.016;2024-01-15T11:09:26;11.18;;;4.72;;
58756;SDS011;44527;47.460;19.016;2024-01-15T11:12:31;10.27;;;4.57;;
58756;SDS011;44527;47.460;19.016;2024-01-15T11:15:57;10.05;;;4.57;;
58756;SDS011;44527;47.460;19.016;2024-01-15T11:19:02;11.85;;;4.68;;
58756;SDS011;44527;47.460;19.016;2024-01-15T11:22:09;11.07;;;4.90;;
58756;SDS011;44527;47.460;19.016;2024-01-15T11:25:35;9.15;;;4.47;;
58756;SDS011;44527;47.460;19.016;2024-01-15T11:28:47;15.38;;;4.65;;
58756;SDS011;44527;47.460;19.016;2024-01-15T11:35:01;9.10;;;4.55;;
58756;SDS011;44527;47.460;19.016;2024-01-15T11:38:05;9.90;;;4.87;;
58756;SDS011;44527;47.460;19.016;2024-01-15T11:41:14;9.60;;;4.95;;
58756;SDS011;44527;47.460;19.016;2024-01-15T11:44:20;10.32;;;5.10;;
58756;SDS011;44527;47.460;19.016;2024-01-15T11:47:31;10.10;;;4.90;;
58756;SDS011;44527;47.460;19.016;2024-01-15T11:51:15;16.67;;;4.55;;
58756;SDS011;44527;47.460;19.016;2024-01-15T11:54:25;8.95;;;3.83;;
58756;SDS011;44527;47.460;19.016;2024-01-15T11:57:51;15.90;;;4.93;;
58756;SDS011;44527;47.460;19.016;2024-01-15T12:01:35;6.57;;;3.58;;
58756;SDS011;44527;47.460;19.016;2024-01-15T12:05:09;5.80;;;3.30;;
58756;SDS011;44527;47.460;19.016;2024-01-15T13:44:42;8.30;;;2.90;;
58756;SDS011;44527;47.460;19.016;2024-01-15T13:47:52;8.63;;;3.47;;
58756;SDS011;44527;47.460;19.016;2024-01-15T13:50:58;8.40;;;2.72;;
58756;SDS011;44527;47.460;19.016;2024-01-15T13:54:38;8.18;;;3.50;;
58756;SDS011;44527;47.460;19.016;2024-01-15T13:58:21;5.60;;;2.62;;
58756;SDS011;44527;47.460;19.016;2024-01-15T14:10:06;7.97;;;3.30;;
58756;SDS011;44527;47.460;19.016;2024-01-15T14:14:29;5.82;;;2.70;;
58756;SDS011;44527;47.460;19.016;2024-01-15T14:18:31;6.45;;;2.90;;
58756;SDS011;44527;47.460;19.016;2024-01-15T14:21:37;4.62;;;2.45;;
58756;SDS011;44527;47.460;19.016;2024-01-15T14:24:41;5.45;;;2.60;;
58756;SDS011;44527;47.460;19.016;2024-01-15T14:27:44;7.53;;;3.25;;
58756;SDS011;44527;47.460;19.016;2024-01-15T14:30:50;11.12;;;2.87;;
58756;SDS011;44527;47.460;19.016;2024-01-15T14:33:55;9.25;;;3.42;;
58756;SDS011;44527;47.460;19.016;2024-01-15T14:37:11;10.90;;;4.53;;
58756;SDS011;44527;47.460;19.016;2024-01-15T14:40:37;14.27;;;5.82;;
58756;SDS011;44527;47.460;19.016;2024-01-15T14:43:41;14.48;;;6.65;;
58756;SDS011;44527;47.460;19.016;2024-01-15T14:46:43;9.77;;;3.70;;
58756;SDS011;44527;47.460;19.016;2024-01-15T14:49:45;14.07;;;3.80;;
58756;SDS011;44527;47.460;19.016;2024-01-15T14:52:48;6.45;;;2.85;;
58756;SDS011;44527;47.460;19.016;2024-01-15T14:55:51;7.45;;;3.00;;
58756;SDS011;44527;47.460;19.016;2024-01-15T14:58:53;13.75;;;3.50;;
58756;SDS011;44527;47.460;19.016;2024-01-15T15:01:56;6.97;;;3.12;;
58756;SDS011;44527;47.460;19.016;2024-01-15T15:04:59;22.77;;;3.55;;
58756;SDS011;44527;47.460;19.016;2024-01-15T15:08:02;8.43;;;3.30;;
58756;SDS011;44527;47.460;19.016;2024-01-15T15:11:10;8.90;;;2.35;;
58756;SDS011;44527;47.460;19.016;2024-01-15T15:14:13;6.12;;;2.78;;
58756;SDS011;44527;47.460;19.016;2024-01-15T15:17:15;6.18;;;3.17;;
58756;SDS011;44527;47.460;19.016;2024-01-15T15:20:18;8.68;;;3.87;;
58756;SDS011;44527;47.460;19.016;2024-01-15T15:23:21;8.20;;;2.80;;
58756;SDS011;44527;47.460;19.016;2024-01-15T15:26:24;8.45;;;3.40;;
58756;SDS011;44527;47.460;19.016;2024-01-15T15:29:26;5.80;;;3.00;;
58756;SDS011;44527;47.460;19.016;2024-01-15T15:32:30;6.43;;;2.62;;
58756;SDS011;44527;47.460;19.016;2024-01-15T15:35:33;8.63;;;3.22;;
58756;SDS011;44527;47.460;19.016;2024-01-15T15:38:35;10.50;;;3.45;;
58756;SDS011;44527;47.460;19.016;2024-01-15T15:41:38;5.97;;;2.90;;
58756;SDS011;44527;47.460;19.016;2024-01-15T15:44:40;9.80;;;3.33;;
58756;SDS011;44527;47.460;19.016;2024-01-15T15:47:48;6.80;;;3.00;;
58756;SDS011;44527;47.460;19.016;2024-01-15T15:50:51;7.95;;;3.37;;
58756;SDS011;44527;47.460;19.016;2024-01-15T15:53:53;5.22;;;2.65;;
58756;SDS011;44527;47.460;19.016;2024-01-15T15:56:56;8.35;;;3.00;;
58756;SDS011;44527;47.460;19.016;2024-01-15T15:59:59;5.68;;;2.85;;
58756;SDS011;44527;47.460;19.016;2024-01-15T16:03:01;7.12;;;3.25;;
58756;SDS011;44527;47.460;19.016;2024-01-15T16:06:04;11.63;;;3.20;;
58756;SDS011;44527;47.460;19.016;2024-01-15T16:09:06;6.72;;;3.00;;
58756;SDS011;44527;47.460;19.016;2024-01-15T16:12:09;8.25;;;3.40;;
58756;SDS011;44527;47.460;19.016;2024-01-15T16:15:18;6.53;;;2.85;;
58756;SDS011;44527;47.460;19.016;2024-01-15T16:18:24;8.60;;;2.72;;
58756;SDS011;44527;47.460;19.016;2024-01-15T16:21:46;7.72;;;2.97;;
58756;SDS011;44527;47.460;19.016;2024-01-15T16:25:09;5.20;;;2.55;;
58756;SDS011;44527;47.460;19.016;2024-01-15T16:28:12;6.50;;;2.75;;
58756;SDS011;44527;47.460;19.016;2024-01-15T16:31:15;11.60;;;2.85;;
58756;SDS011;44527;47.460;19.016;2024-01-15T16:34:17;5.40;;;2.85;;
58756;SDS011;44527;47.460;19.016;2024-01-15T16:37:20;12.30;;;3.12;;
58756;SDS011;44527;47.460;19.016;2024-01-15T16:40:22;7.47;;;3.08;;
58756;SDS011;44527;47.460;19.016;2024-01-15T16:43:25;5.62;;;2.83;;
58756;SDS011;44527;47.460;19.016;2024-01-15T16:46:28;6.78;;;3.85;;
58756;SDS011;44527;47.460;19.016;2024-01-15T16:49:31;8.77;;;4.03;;
58756;SDS011;44527;47.460;19.016;2024-01-15T16:52:33;10.10;;;5.28;;
58756;SDS011;44527;47.460;19.016;2024-01-15T16:55:35;8.27;;;3.35;;
58756;SDS011;44527;47.460;19.016;2024-01-15T16:58:38;13.82;;;3.33;;
58756;SDS011;44527;47.460;19.016;2024-01-15T17:01:41;7.68;;;3.03;;
58756;SDS011;44527;47.460;19.016;2024-01-15T17:04:44;8.82;;;3.58;;
58756;SDS011;44527;47.460;19.016;2024-01-15T17:07:46;8.18;;;3.55;;
58756;SDS011;44527;47.460;19.016;2024-01-15T17:10:49;6.65;;;3.35;;
58756;SDS011;44527;47.460;19.016;2024-01-15T17:13:51;7.78;;;3.25;;
58756;SDS011;44527;47.460;19.016;2024-01-15T17:16:54;7.03;;;3.00;;
58756;SDS011;44527;47.460;19.016;2024-01-15T17:19:57;6.35;;;2.83;;
58756;SDS011;44527;47.460;19.016;2024-01-15T17:23:00;5.62;;;2.55;;
58756;SDS011;44527;47.460;19.016;2024-01-15T17:26:03;6.95;;;2.75;;
58756;SDS011;44527;47.460;19.016;2024-01-15T17:29:05;4.50;;;2.42;;
58756;SDS011;44527;47.460;19.016;2024-01-15T17:32:08;9.23;;;2.15;;
58756;SDS011;44527;47.460;19.016;2024-01-15T17:35:10;5.68;;;2.45;;
58756;SDS011;44527;47.460;19.016;2024-01-15T17:38:13;5.07;;;2.37;;
58756;SDS011;44527;47.460;19.016;2024-01-15T17:41:16;4.90;;;2.70;;
58756;SDS011;44527;47.460;19.016;2024-01-15T17:44:18;5.60;;;2.53;;
58756;SDS011;44527;47.460;19.016;2024-01-15T17:47:20;6.32;;;2.65;;
58756;SDS011;44527;47.460;19.016;2024-01-15T17:50:23;5.47;;;2.60;;
58756;SDS011;44527;47.460;19.016;2024-01-15T17:53:26;6.75;;;2.58;;
58756;SDS011;44527;47.460;19.016;2024-01-15T17:56:28;4.10;;;2.20;;
58756;SDS011;44527;47.460;19.016;2024-01-15T17:59:31;7.50;;;2.22;;
58756;SDS011;44527;47.460;19.016;2024-01-15T18:02:34;3.85;;;2.05;;
58756;SDS011;44527;47.460;19.016;2024-01-15T18:05:37;5.85;;;2.40;;
58756;SDS011;44527;47.460;19.016;2024-01-15T18:08:39;4.35;;;2.00;;
58756;SDS011;44527;47.460;19.016;2024-01-15T18:11:45;4.85;;;1.95;;
58756;SDS011;44527;47.460;19.016;2024-01-15T18:14:47;4.15;;;2.22;;
58756;SDS011;44527;47.460;19.016;2024-01-15T18:17:50;5.03;;;2.45;;
58756;SDS011;44527;47.460;19.016;2024-01-15T18:20:53;7.68;;;2.28;;
58756;SDS011;44527;47.460;19.016;2024-01-15T18:23:55;5.65;;;2.33;;
58756;SDS011;44527;47.460;19.016;2024-01-15T18:26:58;6.95;;;2.35;;
58756;SDS011;44527;47.460;19.016;2024-01-15T18:30:01;5.05;;;2.45;;
58756;SDS011;44527;47.460;19.016;2024-01-15T18:33:03;5.32;;;1.98;;
58756;SDS011;44527;47.460;19.016;2024-01-15T18:36:08;6.62;;;2.72;;
58756;SDS011;44527;47.460;19.016;2024-01-15T18:39:11;6.00;;;2.72;;
58756;SDS011;44527;47.460;19.016;2024-01-15T18:42:13;6.18;;;2.65;;
58756;SDS011;44527;47.460;19.016;2024-01-15T18:45:15;5.95;;;2.55;;
58756;SDS011;44527;47.460;19.016;2024-01-15T18:48:18;5.22;;;2.70;;
58756;SDS011;44527;47.460;19.016;2024-01-15T18:51:21;7.47;;;3.00;;
58756;SDS011;44527;47.460;19.016;2024-01-15T18:54:24;9.65;;;3.55;;
58756;SDS011;44527;47.460;19.016;2024-01-15T18:57:26;5.70;;;2.45;;
58756;SDS011;44527;47.460;19.016;2024-01-15T19:00:29;9.15;;;3.03;;
58756;SDS011;44527;47.460;19.016;2024-01-15T19:03:31;7.95;;;3.62;;
58756;SDS011;44527;47.460;19.016;2024-01-15T19:06:34;7.28;;;2.92;;
58756;SDS011;44527;47.460;19.016;2024-01-15T19:09:36;6.55;;;2.83;;
58756;SDS011;44527;47.460;19.016;2024-01-15T19:12:39;5.85;;;3.20;;
58756;SDS011;44527;47.460;19.016;2024-01-15T19:15:41;6.37;;;2.58;;
58756;SDS011;44527;47.460;19.016;2024-01-15T19:18:44;5.28;;;2.70;;
58756;SDS011;44527;47.460;19.016;2024-01-15T19:21:49;5.53;;;2.90;;
58756;SDS011;44527;47.460;19.016;2024-01-15T19:24:52;6.18;;;2.92;;
58756;SDS011;44527;47.460;19.016;2024-01-15T19:27:54;7.62;;;3.08;;
58756;SDS011;44527;47.460;19.016;2024-01-15T19:30:57;5.35;;;3.33;;
58756;SDS011;44527;47.460;19.016;2024-01-15T19:33:59;6.30;;;2.72;;
58756;SDS011;44527;47.460;19.016;2024-01-15T19:37:02;4.82;;;2.65;;
58756;SDS011;44527;47.460;19.016;2024-01-15T19:40:04;5.72;;;3.08;;
58756;SDS011;44527;47.460;19.016;2024-01-15T19:43:08;8.02;;;3.15;;
58756;SDS011;44527;47.460;19.016;2024-01-15T19:46:12;5.53;;;2.92;;
58756;SDS011;44527;47.460;19.016;2024-01-15T19:49:15;5.87;;;3.00;;
58756;SDS011;44527;47.460;19.016;2024-01-15T19:52:18;8.43;;;3.40;;
58756;SDS011;44527;47.460;19.016;2024-01-15T19:55:20;6.40;;;3.17;;
58756;SDS011;44527;47.460;19.016;2024-01-15T19:58:23;7.47;;;3.22;;
58756;SDS011;44527;47.460;19.016;2024-01-15T20:01:26;7.07;;;3.28;;
58756;SDS011;44527;47.460;19.016;2024-01-15T20:04:29;5.62;;;2.85;;
58756;SDS011;44527;47.460;19.016;2024-01-15T20:07:32;7.70;;;3.28;;
58756;SDS011;44527;47.460;19.016;2024-01-15T20:10:34;5.70;;;3.15;;
58756;SDS011;44527;47.460;19.016;2024-01-15T20:13:37;5.97;;;3.15;;
58756;SDS011;44527;47.460;19.016;2024-01-15T20:16:40;11.50;;;3.47;;
58756;SDS011;44527;47.460;19.016;2024-01-15T20:19:43;8.00;;;3.42;;
58756;SDS011;44527;47.460;19.016;2024-01-15T20:22:45;7.95;;;3.37;;
58756;SDS011;44527;47.460;19.016;2024-01-15T20:25:48;6.75;;;4.03;;
58756;SDS011;44527;47.460;19.016;2024-01-15T20:28:52;7.03;;;3.40;;
58756;SDS011;44527;47.460;19.016;2024-01-15T20:31:54;6.97;;;3.17;;
58756;SDS011;44527;47.460;19.016;2024-01-15T20:34:57;5.53;;;2.80;;
58756;SDS011;44527;47.460;19.016;2024-01-15T20:37:59;6.45;;;3.05;;
58756;SDS011;44527;47.460;19.016;2024-01-15T20:41:03;4.78;;;2.58;;
58756;SDS011;44527;47.460;19.016;2024-01-15T20:44:05;4.72;;;2.50;;
58756;SDS011;44527;47.460;19.016;2024-01-15T20:47:08;5.87;;;2.58;;
58756;SDS011;44527;47.460;19.016;2024-01-15T20:50:12;4.57;;;2.30;;
58756;SDS011;44527;47.460;19.016;2024-01-15T20:53:15;9.23;;;2.80;;
58756;SDS011;44527;47.460;19.016;2024-01-15T20:56:17;8.00;;;2.20;;
58756;SDS011;44527;47.460;19.016;2024-01-15T20:59:20;4.72;;;2.20;;
58756;SDS011;44527;47.460;19.016;2024-01-15T21:02:22;10.13;;;3.12;;
58756;SDS011;44527;47.460;19.016;2024-01-15T21:05:25;6.93;;;2.85;;
58756;SDS011;44527;47.460;19.016;2024-01-15T21:08:27;5.70;;;2.80;;
58756;SDS011;44527;47.460;19.016;2024-01-15T21:11:31;6.82;;;2.72;;
58756;SDS011;44527;47.460;19.016;2024-01-15T21:14:33;4.62;;;2.15;;
58756;SDS011;44527;47.460;19.016;2024-01-15T21:17:38;7.22;;;2.90;;
58756;SDS011;44527;47.460;19.016;2024-01-15T21:20:41;4.93;;;2.65;;
58756;SDS011;44527;47.460;19.016;2024-01-15T21:23:43;9.48;;;3.60;;
58756;SDS011;44527;47.460;19.016;2024-01-15T21:26:46;5.65;;;3.03;;
58756;SDS011;44527;47.460;19.016;2024-01-15T21:29:48;6.25;;;3.08;;
58756;SDS011;44527;47.460;19.016;2024-01-15T21:32:51;5.78;;;3.08;;
58756;SDS011;44527;47.460;19.016;2024-01-15T21:35:53;6.50;;;3.28;;
58756;SDS011;44527;47.460;19.016;2024-01-15T21:38:56;6.55;;;3.10;;
58756;SDS011;44527;47.460;19.016;2024-01-15T21:41:59;5.78;;;2.58;;
58756;SDS011;44527;47.460;19.016;2024-01-15T21:45:02;5.68;;;2.67;;
58756;SDS011;44527;47.460;19.016;2024-01-15T21:48:05;5.60;;;2.72;;
58756;SDS011;44527;47.460;19.016;2024-01-15T21:51:08;4.65;;;2.58;;
58756;SDS011;44527;47.460;19.016;2024-01-15T21:54:10;7.95;;;3.03;;
58756;SDS011;44527;47.460;19.016;2024-01-15T21:57:13;7.82;;;2.92;;
58756;SDS011;44527;47.460;19.016;2024-01-15T22:00:15;11.15;;;3.03;;
58756;SDS011;44527;47.460;19.016;2024-01-15T22:03:20;6.32;;;2.55;;
58756;SDS011;44527;47.460;19.016;2024-01-15T22:06:23;7.82;;;2.58;;
58756;SDS011;44527;47.460;19.016;2024-01-15T22:09:25;5.30;;;2.75;;
58756;SDS011;44527;47.460;19.016;2024-01-15T22:12:28;5.50;;;2.62;;